sensor_id;sensor_type;location;lat;lon;timestamp;pressure;altitude;pressure_sealevel;temperature;humidity
69306;BME280;56427;51.580;4.656;2023-04-03T00:00:18;102969.56;;;3.08;100.00
69306;BME280;56427;51.580;4.656;2023-04-03T00:02:43;102977.91;;;3.19;100.00
69306;BME280;56427;51.580;4.656;2023-04-03T00:05:09;102972.19;;;3.03;100.00
69306;BME280;56427;51.580;4.656;2023-04-03T00:07:34;102968.94;;;2.93;100.00
69306;BME280;56427;51.580;4.656;2023-04-03T00:10:00;102970.78;;;2.85;100.00
69306;BME280;56427;51.580;4.656;2023-04-03T00:12:25;102970.84;;;2.81;100.00
69306;BME280;56427;51.580;4.656;2023-04-03T00:14:50;102974.06;;;2.93;100.00
69306;BME280;56427;51.580;4.656;2023-04-03T00:17:16;102980.09;;;2.91;100.00
69306;BME280;56427;51.580;4.656;2023-04-03T00:19:41;102982.00;;;2.80;100.00
69306;BME280;56427;51.580;4.656;2023-04-03T00:22:06;102978.38;;;2.91;100.00
69306;BME280;56427;51.580;4.656;2023-04-03T00:24:32;102978.88;;;3.12;100.00
69306;BME280;56427;51.580;4.656;2023-04-03T00:26:57;102984.22;;;3.48;100.00
69306;BME280;56427;51.580;4.656;2023-04-03T00:29:25;102978.84;;;3.13;100.00
69306;BME280;56427;51.580;4.656;2023-04-03T00:31:51;102982.50;;;3.00;100.00
69306;BME280;56427;51.580;4.656;2023-04-03T00:34:16;102976.78;;;2.84;100.00
69306;BME280;56427;51.580;4.656;2023-04-03T00:36:41;102982.41;;;3.06;100.00
69306;BME280;56427;51.580;4.656;2023-04-03T00:39:07;102977.91;;;3.19;100.00
69306;BME280;56427;51.580;4.656;2023-04-03T00:41:32;102976.72;;;2.87;100.00
69306;BME280;56427;51.580;4.656;2023-04-03T00:43:57;102980.31;;;2.77;100.00
69306;BME280;56427;51.580;4.656;2023-04-03T00:46:23;102980.50;;;2.65;100.00
69306;BME280;56427;51.580;4.656;2023-04-03T00:48:49;102979.09;;;3.00;100.00
69306;BME280;56427;51.580;4.656;2023-04-03T00:51:20;102980.28;;;2.80;100.00
69306;BME280;56427;51.580;4.656;2023-04-03T00:54:08;102977.88;;;2.69;100.00
69306;BME280;56427;51.580;4.656;2023-04-03T00:56:35;102984.13;;;2.51;100.00
69306;BME280;56427;51.580;4.656;2023-04-03T00:59:04;102983.19;;;2.58;100.00
69306;BME280;56427;51.580;4.656;2023-04-03T01:01:31;102984.63;;;2.75;100.00
69306;BME280;56427;51.580;4.656;2023-04-03T01:04:03;102981.44;;;2.59;100.00
69306;BME280;56427;51.580;4.656;2023-04-03T01:06:34;102981.50;;;2.56;100.00
69306;BME280;56427;51.580;4.656;2023-04-03T01:09:00;102986.59;;;2.57;100.00
69306;BME280;56427;51.580;4.656;2023-04-03T01:11:26;102990.13;;;2.50;100.00
69306;BME280;56427;51.580;4.656;2023-04-03T01:13:52;102986.63;;;2.56;100.00
69306;BME280;56427;51.580;4.656;2023-04-03T01:16:18;102989.06;;;2.64;100.00
69306;BME280;56427;51.580;4.656;2023-04-03T01:18:44;102993.50;;;2.54;100.00
69306;BME280;56427;51.580;4.656;2023-04-03T01:24:20;102992.00;;;2.39;100.00
69306;BME280;56427;51.580;4.656;2023-04-03T01:26:48;102986.31;;;2.17;100.00
69306;BME280;56427;51.580;4.656;2023-04-03T01:29:14;102989.75;;;2.16;100.00
69306;BME280;56427;51.580;4.656;2023-04-03T01:31:51;102993.00;;;2.29;100.00
69306;BME280;56427;51.580;4.656;2023-04-03T01:34:16;102985.53;;;2.12;100.00
69306;BME280;56427;51.580;4.656;2023-04-03T01:36:42;102998.19;;;2.23;100.00
69306;BME280;56427;51.580;4.656;2023-04-03T01:39:08;102996.38;;;2.31;100.00
69306;BME280;56427;51.580;4.656;2023-04-03T01:41:33;102993.66;;;2.42;100.00
69306;BME280;56427;51.580;4.656;2023-04-03T01:43:59;103002.41;;;2.25;100.00
69306;BME280;56427;51.580;4.656;2023-04-03T01:46:25;102996.44;;;2.26;100.00
69306;BME280;56427;51.580;4.656;2023-04-03T01:48:50;102993.84;;;2.29;100.00
69306;BME280;56427;51.580;4.656;2023-04-03T01:51:16;102992.81;;;2.41;100.00
69306;BME280;56427;51.580;4.656;2023-04-03T01:53:41;102994.72;;;2.25;100.00
69306;BME280;56427;51.580;4.656;2023-04-03T01:56:07;103001.59;;;2.23;100.00
69306;BME280;56427;51.580;4.656;2023-04-03T01:58:33;102996.50;;;2.20;100.00
69306;BME280;56427;51.580;4.656;2023-04-03T02:00:58;103001.50;;;2.32;100.00
69306;BME280;56427;51.580;4.656;2023-04-03T02:03:24;103002.50;;;2.20;100.00
69306;BME280;56427;51.580;4.656;2023-04-03T02:05:50;102999.25;;;2.08;100.00
69306;BME280;56427;51.580;4.656;2023-04-03T02:08:16;103006.28;;;1.90;100.00
69306;BME280;56427;51.580;4.656;2023-04-03T02:10:44;103007.09;;;1.94;100.00
69306;BME280;56427;51.580;4.656;2023-04-03T02:13:10;103003.63;;;1.98;100.00
69306;BME280;56427;51.580;4.656;2023-04-03T02:15:38;103008.47;;;2.21;100.00
69306;BME280;56427;51.580;4.656;2023-04-03T02:18:03;103012.13;;;2.00;100.00
69306;BME280;56427;51.580;4.656;2023-04-03T02:20:28;103019.03;;;1.95;100.00
69306;BME280;56427;51.580;4.656;2023-04-03T02:22:55;103016.56;;;1.87;100.00
69306;BME280;56427;51.580;4.656;2023-04-03T02:25:20;103016.56;;;1.87;100.00
69306;BME280;56427;51.580;4.656;2023-04-03T02:27:46;103014.72;;;1.98;100.00
69306;BME280;56427;51.580;4.656;2023-04-03T02:30:11;103008.66;;;2.06;100.00
69306;BME280;56427;51.580;4.656;2023-04-03T02:32:37;103014.63;;;2.08;100.00
69306;BME280;56427;51.580;4.656;2023-04-03T02:35:03;103014.91;;;1.83;100.00
69306;BME280;56427;51.580;4.656;2023-04-03T02:37:28;103018.19;;;1.94;100.00
69306;BME280;56427;51.580;4.656;2023-04-03T02:39:55;103015.94;;;1.67;100.00
69306;BME280;56427;51.580;4.656;2023-04-03T02:42:20;103021.13;;;1.59;100.00
69306;BME280;56427;51.580;4.656;2023-04-03T02:44:45;103017.75;;;1.55;100.00
69306;BME280;56427;51.580;4.656;2023-04-03T02:47:11;103014.09;;;1.79;100.00
69306;BME280;56427;51.580;4.656;2023-04-03T02:49:37;103023.69;;;1.60;100.00
69306;BME280;56427;51.580;4.656;2023-04-03T02:52:02;103014.31;;;1.58;100.00
69306;BME280;56427;51.580;4.656;2023-04-03T02:54:27;103018.47;;;1.70;100.00
69306;BME280;56427;51.580;4.656;2023-04-03T02:56:56;103022.88;;;1.55;100.00
69306;BME280;56427;51.580;4.656;2023-04-03T02:59:21;103031.41;;;1.54;100.00
69306;BME280;56427;51.580;4.656;2023-04-03T03:01:47;103022.88;;;1.55;100.00
69306;BME280;56427;51.580;4.656;2023-04-03T03:04:12;103020.09;;;1.75;100.00
69306;BME280;56427;51.580;4.656;2023-04-03T03:06:37;103027.09;;;1.58;100.00
69306;BME280;56427;51.580;4.656;2023-04-03T03:09:03;103030.56;;;1.55;100.00
69306;BME280;56427;51.580;4.656;2023-04-03T03:11:29;103034.06;;;1.48;100.00
69306;BME280;56427;51.580;4.656;2023-04-03T03:13:55;103024.84;;;1.30;100.00
69306;BME280;56427;51.580;4.656;2023-04-03T03:16:20;103027.22;;;1.45;100.00
69306;BME280;56427;51.580;4.656;2023-04-03T03:18:45;103025.69;;;1.27;100.00
69306;BME280;56427;51.580;4.656;2023-04-03T03:21:11;103029.09;;;1.26;100.00
69306;BME280;56427;51.580;4.656;2023-04-03T03:23:36;103032.34;;;1.47;100.00
69306;BME280;56427;51.580;4.656;2023-04-03T03:26:07;103029.72;;;1.53;100.00
69306;BME280;56427;51.580;4.656;2023-04-03T03:28:33;103030.88;;;1.18;100.00
69306;BME280;56427;51.580;4.656;2023-04-03T03:30:59;103038.22;;;1.55;100.00
69306;BME280;56427;51.580;4.656;2023-04-03T03:33:25;103033.16;;;1.49;100.00
69306;BME280;56427;51.580;4.656;2023-04-03T03:35:52;103038.31;;;1.46;100.00
69306;BME280;56427;51.580;4.656;2023-04-03T03:38:17;103040.94;;;1.40;100.00
69306;BME280;56427;51.580;4.656;2023-04-03T03:40:43;103046.13;;;1.32;100.00
69306;BME280;56427;51.580;4.656;2023-04-03T03:43:08;103043.69;;;1.17;100.00
69306;BME280;56427;51.580;4.656;2023-04-03T03:45:33;103050.56;;;1.08;100.00
69306;BME280;56427;51.580;4.656;2023-04-03T03:48:00;103046.16;;;1.27;100.00
69306;BME280;56427;51.580;4.656;2023-04-03T03:50:26;103056.50;;;1.15;100.00
69306;BME280;56427;51.580;4.656;2023-04-03T03:52:51;103056.38;;;1.31;100.00
69306;BME280;56427;51.580;4.656;2023-04-03T03:55:17;103055.38;;;1.47;100.00
69306;BME280;56427;51.580;4.656;2023-04-03T03:57:42;103048.75;;;1.21;100.00
69306;BME280;56427;51.580;4.656;2023-04-03T04:00:08;103059.84;;;1.23;100.00
69306;BME280;56427;51.580;4.656;2023-04-03T04:02:34;103061.53;;;1.23;100.00
69306;BME280;56427;51.580;4.656;2023-04-03T04:04:59;103058.22;;;1.08;100.00
69306;BME280;56427;51.580;4.656;2023-04-03T04:07:25;103052.19;;;1.22;100.00
69306;BME280;56427;51.580;4.656;2023-04-03T04:09:53;103060.75;;;1.13;100.00
69306;BME280;56427;51.580;4.656;2023-04-03T04:12:18;103060.84;;;1.05;100.00
69306;BME280;56427;51.580;4.656;2023-04-03T04:14:43;103054.16;;;0.86;100.00
69306;BME280;56427;51.580;4.656;2023-04-03T04:17:12;103057.53;;;0.91;100.00
69306;BME280;56427;51.580;4.656;2023-04-03T04:19:37;103055.09;;;0.74;100.00
69306;BME280;56427;51.580;4.656;2023-04-03T04:22:03;103058.53;;;0.62;100.00
69306;BME280;56427;51.580;4.656;2023-04-03T04:24:28;103056.84;;;0.63;100.00
69306;BME280;56427;51.580;4.656;2023-04-03T04:26:54;103055.97;;;0.62;100.00
69306;BME280;56427;51.580;4.656;2023-04-03T04:29:19;103060.16;;;0.79;100.00
69306;BME280;56427;51.580;4.656;2023-04-03T04:31:44;103060.94;;;0.87;100.00
69306;BME280;56427;51.580;4.656;2023-04-03T04:34:10;103061.75;;;0.95;100.00
69306;BME280;56427;51.580;4.656;2023-04-03T04:36:35;103060.03;;;0.97;100.00
69306;BME280;56427;51.580;4.656;2023-04-03T04:39:01;103054.13;;;0.90;100.00
69306;BME280;56427;51.580;4.656;2023-04-03T04:41:26;103059.94;;;1.08;100.00
69306;BME280;56427;51.580;4.656;2023-04-03T04:43:52;103056.72;;;0.84;100.00
69306;BME280;56427;51.580;4.656;2023-04-03T04:46:18;103055.84;;;0.84;100.00
69306;BME280;56427;51.580;4.656;2023-04-03T04:48:44;103058.50;;;0.73;100.00
69306;BME280;56427;51.580;4.656;2023-04-03T04:51:10;103073.69;;;0.93;100.00
69306;BME280;56427;51.580;4.656;2023-04-03T04:53:36;103077.09;;;0.94;100.00
69306;BME280;56427;51.580;4.656;2023-04-03T04:56:01;103067.81;;;0.80;100.00
69306;BME280;56427;51.580;4.656;2023-04-03T04:58:27;103072.88;;;0.88;100.00
69306;BME280;56427;51.580;4.656;2023-04-03T05:01:05;103075.53;;;0.74;100.00
69306;BME280;56427;51.580;4.656;2023-04-03T05:03:32;103071.19;;;0.87;100.00
69306;BME280;56427;51.580;4.656;2023-04-03T05:05:58;103072.06;;;0.86;100.00
69306;BME280;56427;51.580;4.656;2023-04-03T05:08:23;103067.88;;;0.74;100.00
69306;BME280;56427;51.580;4.656;2023-04-03T05:13:24;103081.31;;;1.04;100.00
69306;BME280;56427;51.580;4.656;2023-04-03T05:15:50;103076.84;;;1.27;100.00
69306;BME280;56427;51.580;4.656;2023-04-03T05:18:15;103078.03;;;0.80;100.00
69306;BME280;56427;51.580;4.656;2023-04-03T05:20:40;103070.34;;;0.86;100.00
69306;BME280;56427;51.580;4.656;2023-04-03T05:23:06;103075.44;;;0.86;100.00
69306;BME280;56427;51.580;4.656;2023-04-03T05:25:31;103078.78;;;1.01;100.00
69306;BME280;56427;51.580;4.656;2023-04-03T05:27:57;103072.09;;;0.78;100.00
69306;BME280;56427;51.580;4.656;2023-04-03T05:30:22;103086.47;;;0.95;100.00
69306;BME280;56427;51.580;4.656;2023-04-03T05:32:48;103081.41;;;0.87;100.00
69306;BME280;56427;51.580;4.656;2023-04-03T05:35:13;103082.16;;;1.00;100.00
69306;BME280;56427;51.580;4.656;2023-04-03T05:37:40;103082.19;;;0.98;100.00
69306;BME280;56427;51.580;4.656;2023-04-03T05:40:06;103093.13;;;1.22;100.00
69306;BME280;56427;51.580;4.656;2023-04-03T05:42:32;103093.22;;;1.02;100.00
69306;BME280;56427;51.580;4.656;2023-04-03T05:44:57;103090.34;;;1.48;100.00
69306;BME280;56427;51.580;4.656;2023-04-03T05:47:23;103094.53;;;2.36;100.00
69306;BME280;56427;51.580;4.656;2023-04-03T05:49:48;103088.44;;;3.07;100.00
69306;BME280;56427;51.580;4.656;2023-04-03T05:52:25;103085.25;;;2.91;100.00
69306;BME280;56427;51.580;4.656;2023-04-03T05:54:51;103092.53;;;3.19;100.00
69306;BME280;56427;51.580;4.656;2023-04-03T05:57:17;103093.47;;;3.64;100.00
69306;BME280;56427;51.580;4.656;2023-04-03T05:59:43;103089.84;;;3.76;100.00
69306;BME280;56427;51.580;4.656;2023-04-03T06:02:14;103093.16;;;3.81;100.00
69306;BME280;56427;51.580;4.656;2023-04-03T06:04:40;103088.88;;;4.27;100.00
69306;BME280;56427;51.580;4.656;2023-04-03T06:07:06;103093.78;;;4.39;100.00
69306;BME280;56427;51.580;4.656;2023-04-03T06:09:33;103088.91;;;4.24;100.00
69306;BME280;56427;51.580;4.656;2023-04-03T06:11:58;103092.78;;;4.84;100.00
69306;BME280;56427;51.580;4.656;2023-04-03T06:14:25;103095.25;;;4.90;100.00
69306;BME280;56427;51.580;4.656;2023-04-03T06:16:51;103096.84;;;4.55;100.00
69306;BME280;56427;51.580;4.656;2023-04-03T06:19:17;103093.44;;;4.94;100.00
69306;BME280;56427;51.580;4.656;2023-04-03T06:21:42;103094.41;;;4.88;100.00
69306;BME280;56427;51.580;4.656;2023-04-03T06:24:09;103101.16;;;4.94;100.00
69306;BME280;56427;51.580;4.656;2023-04-03T06:26:34;103099.31;;;4.60;100.00
69306;BME280;56427;51.580;4.656;2023-04-03T06:29:00;103101.84;;;4.63;100.00
69306;BME280;56427;51.580;4.656;2023-04-03T06:31:26;103113.75;;;4.25;100.00
69306;BME280;56427;51.580;4.656;2023-04-03T06:33:52;103120.25;;;4.84;100.00
69306;BME280;56427;51.580;4.656;2023-04-03T06:36:19;103115.63;;;4.98;100.00
69306;BME280;56427;51.580;4.656;2023-04-03T06:38:47;103117.00;;;5.13;100.00
69306;BME280;56427;51.580;4.656;2023-04-03T06:41:13;103120.16;;;5.24;100.00
69306;BME280;56427;51.580;4.656;2023-04-03T06:43:39;103110.19;;;5.46;100.00
69306;BME280;56427;51.580;4.656;2023-04-03T06:46:04;103120.16;;;5.60;100.00
69306;BME280;56427;51.580;4.656;2023-04-03T06:48:30;103111.94;;;5.79;100.00
69306;BME280;56427;51.580;4.656;2023-04-03T06:50:56;103105.34;;;6.33;100.00
69306;BME280;56427;51.580;4.656;2023-04-03T06:53:21;103114.53;;;5.77;100.00
69306;BME280;56427;51.580;4.656;2023-04-03T06:55:47;103124.41;;;5.61;100.00
69306;BME280;56427;51.580;4.656;2023-04-03T06:58:13;103128.94;;;5.86;100.00
69306;BME280;56427;51.580;4.656;2023-04-03T07:00:40;103123.88;;;5.83;100.00
69306;BME280;56427;51.580;4.656;2023-04-03T07:03:06;103119.94;;;6.34;100.00
69306;BME280;56427;51.580;4.656;2023-04-03T07:05:31;103121.53;;;7.23;100.00
69306;BME280;56427;51.580;4.656;2023-04-03T07:07:57;103120.97;;;7.40;100.00
69306;BME280;56427;51.580;4.656;2023-04-03T07:10:22;103124.91;;;6.40;100.00
69306;BME280;56427;51.580;4.656;2023-04-03T07:12:47;103129.16;;;6.11;100.00
69306;BME280;56427;51.580;4.656;2023-04-03T07:15:13;103136.66;;;5.86;100.00
69306;BME280;56427;51.580;4.656;2023-04-03T07:17:39;103125.34;;;6.24;100.00
69306;BME280;56427;51.580;4.656;2023-04-03T07:20:06;103124.69;;;6.16;100.00
69306;BME280;56427;51.580;4.656;2023-04-03T07:22:32;103137.00;;;6.38;100.00
69306;BME280;56427;51.580;4.656;2023-04-03T07:24:58;103129.69;;;6.82;100.00
69306;BME280;56427;51.580;4.656;2023-04-03T07:27:24;103135.13;;;7.01;100.00
69306;BME280;56427;51.580;4.656;2023-04-03T07:29:50;103135.09;;;6.13;100.00
69306;BME280;56427;51.580;4.656;2023-04-03T07:32:16;103139.38;;;6.14;100.00
69306;BME280;56427;51.580;4.656;2023-04-03T07:34:41;103135.63;;;6.84;100.00
69306;BME280;56427;51.580;4.656;2023-04-03T07:37:07;103136.00;;;6.43;100.00
69306;BME280;56427;51.580;4.656;2023-04-03T07:39:34;103142.81;;;6.44;100.00
69306;BME280;56427;51.580;4.656;2023-04-03T07:42:00;103135.22;;;7.25;100.00
69306;BME280;56427;51.580;4.656;2023-04-03T07:44:25;103134.09;;;7.60;100.00
69306;BME280;56427;51.580;4.656;2023-04-03T07:46:51;103129.66;;;7.10;100.00
69306;BME280;56427;51.580;4.656;2023-04-03T07:49:17;103139.44;;;7.29;100.00
69306;BME280;56427;51.580;4.656;2023-04-03T07:51:48;103146.03;;;6.82;100.00
69306;BME280;56427;51.580;4.656;2023-04-03T07:54:13;103150.41;;;6.79;100.00
69306;BME280;56427;51.580;4.656;2023-04-03T07:56:39;103152.72;;;6.60;100.00
69306;BME280;56427;51.580;4.656;2023-04-03T07:59:04;103149.38;;;6.56;100.00
69306;BME280;56427;51.580;4.656;2023-04-03T08:01:30;103148.94;;;7.27;100.00
69306;BME280;56427;51.580;4.656;2023-04-03T08:03:57;103158.88;;;7.39;97.68
69306;BME280;56427;51.580;4.656;2023-04-03T08:06:23;103155.66;;;7.32;98.64
69306;BME280;56427;51.580;4.656;2023-04-03T08:08:48;103145.16;;;7.64;98.63
69306;BME280;56427;51.580;4.656;2023-04-03T08:11:13;103147.19;;;7.29;97.26
69306;BME280;56427;51.580;4.656;2023-04-03T08:13:39;103146.53;;;7.49;95.53
69306;BME280;56427;51.580;4.656;2023-04-03T08:16:17;103156.56;;;7.83;95.88
69306;BME280;56427;51.580;4.656;2023-04-03T08:18:43;103152.88;;;7.39;95.21
69306;BME280;56427;51.580;4.656;2023-04-03T08:21:10;103155.94;;;6.96;95.19
69306;BME280;56427;51.580;4.656;2023-04-03T08:23:36;103161.56;;;7.63;95.78
69306;BME280;56427;51.580;4.656;2023-04-03T08:26:14;103161.22;;;7.73;94.29
69306;BME280;56427;51.580;4.656;2023-04-03T08:28:40;103163.84;;;7.97;91.63
69306;BME280;56427;51.580;4.656;2023-04-03T08:31:09;103160.31;;;7.48;87.66
69306;BME280;56427;51.580;4.656;2023-04-03T08:33:36;103173.44;;;6.87;88.93
69306;BME280;56427;51.580;4.656;2023-04-03T08:36:07;103163.44;;;7.04;89.23
69306;BME280;56427;51.580;4.656;2023-04-03T08:38:33;103175.63;;;7.27;91.01
69306;BME280;56427;51.580;4.656;2023-04-03T08:41:05;103169.31;;;7.63;89.17
69306;BME280;56427;51.580;4.656;2023-04-03T08:46:32;103180.56;;;7.87;81.86
69306;BME280;56427;51.580;4.656;2023-04-03T08:49:01;103176.09;;;7.40;80.84
69306;BME280;56427;51.580;4.656;2023-04-03T08:51:27;103175.78;;;8.01;81.74
69306;BME280;56427;51.580;4.656;2023-04-03T08:56:42;103171.56;;;7.47;79.67
69306;BME280;56427;51.580;4.656;2023-04-03T08:59:24;103164.78;;;7.69;78.80
69306;BME280;56427;51.580;4.656;2023-04-03T09:01:52;103159.09;;;7.85;73.76
69306;BME280;56427;51.580;4.656;2023-04-03T09:04:18;103162.16;;;8.45;78.58
69306;BME280;56427;51.580;4.656;2023-04-03T09:06:47;103169.63;;;9.20;76.50
69306;BME280;56427;51.580;4.656;2023-04-03T09:09:29;103165.91;;;8.60;70.33
69306;BME280;56427;51.580;4.656;2023-04-03T09:17:26;103165.56;;;8.22;68.96
69306;BME280;56427;51.580;4.656;2023-04-03T09:22:28;103165.28;;;8.29;64.67
69306;BME280;56427;51.580;4.656;2023-04-03T09:25:05;103164.59;;;8.50;64.05
69306;BME280;56427;51.580;4.656;2023-04-03T09:27:33;103157.28;;;8.83;62.67
69306;BME280;56427;51.580;4.656;2023-04-03T09:29:58;103157.00;;;9.13;65.82
69306;BME280;56427;51.580;4.656;2023-04-03T09:32:36;103154.59;;;9.08;60.52
69306;BME280;56427;51.580;4.656;2023-04-03T09:35:20;103156.91;;;9.98;57.12
69306;BME280;56427;51.580;4.656;2023-04-03T09:37:49;103154.81;;;9.02;57.48
69306;BME280;56427;51.580;4.656;2023-04-03T09:40:37;103146.19;;;8.79;54.24
69306;BME280;56427;51.580;4.656;2023-04-03T09:43:20;103152.66;;;9.13;55.18
69306;BME280;56427;51.580;4.656;2023-04-03T09:45:47;103140.53;;;9.36;53.97
69306;BME280;56427;51.580;4.656;2023-04-03T09:53:40;103145.00;;;9.10;54.46
69306;BME280;56427;51.580;4.656;2023-04-03T09:56:32;103139.13;;;9.27;50.24
69306;BME280;56427;51.580;4.656;2023-04-03T10:01:32;103128.28;;;9.60;46.95
69306;BME280;56427;51.580;4.656;2023-04-03T10:04:17;103130.16;;;9.56;44.03
69306;BME280;56427;51.580;4.656;2023-04-03T10:06:53;103125.81;;;9.77;45.36
69306;BME280;56427;51.580;4.656;2023-04-03T10:09:25;103127.00;;;9.70;43.40
69306;BME280;56427;51.580;4.656;2023-04-03T10:14:23;103130.94;;;9.38;46.27
69306;BME280;56427;51.580;4.656;2023-04-03T10:25:17;103112.59;;;9.84;43.75
69306;BME280;56427;51.580;4.656;2023-04-03T10:28:00;103108.59;;;10.14;44.75
69306;BME280;56427;51.580;4.656;2023-04-03T10:33:12;103108.78;;;9.51;42.46
69306;BME280;56427;51.580;4.656;2023-04-03T10:36:01;103112.28;;;9.90;42.94
69306;BME280;56427;51.580;4.656;2023-04-03T10:41:23;103110.97;;;9.40;42.45
69306;BME280;56427;51.580;4.656;2023-04-03T10:44:12;103105.19;;;9.33;43.19
69306;BME280;56427;51.580;4.656;2023-04-03T10:46:44;103104.69;;;9.46;41.98
69306;BME280;56427;51.580;4.656;2023-04-03T10:51:49;103096.13;;;8.80;40.76
69306;BME280;56427;51.580;4.656;2023-04-03T10:54:38;103101.31;;;9.44;42.23
69306;BME280;56427;51.580;4.656;2023-04-03T10:57:08;103087.69;;;8.75;40.67
69306;BME280;56427;51.580;4.656;2023-04-03T10:59:47;103082.13;;;9.27;41.15
69306;BME280;56427;51.580;4.656;2023-04-03T11:02:17;103074.25;;;8.65;38.58
69306;BME280;56427;51.580;4.656;2023-04-03T11:04:48;103075.75;;;8.49;39.03
69306;BME280;56427;51.580;4.656;2023-04-03T11:07:26;103072.03;;;8.78;39.54
69306;BME280;56427;51.580;4.656;2023-04-03T11:10:03;103062.88;;;8.92;39.25
69306;BME280;56427;51.580;4.656;2023-04-03T11:12:41;103062.03;;;9.12;42.11
69306;BME280;56427;51.580;4.656;2023-04-03T11:15:13;103063.50;;;9.39;41.06
69306;BME280;56427;51.580;4.656;2023-04-03T11:17:45;103062.44;;;9.44;41.73
69306;BME280;56427;51.580;4.656;2023-04-03T11:20:23;103071.78;;;8.84;39.87
69306;BME280;56427;51.580;4.656;2023-04-03T11:23:23;103068.59;;;9.20;39.14
69306;BME280;56427;51.580;4.656;2023-04-03T11:25:52;103062.16;;;8.88;40.00
69306;BME280;56427;51.580;4.656;2023-04-03T11:28:19;103073.97;;;9.36;39.39
69306;BME280;56427;51.580;4.656;2023-04-03T11:36:10;103060.81;;;9.62;39.78
69306;BME280;56427;51.580;4.656;2023-04-03T11:38:42;103060.34;;;9.11;39.38
69306;BME280;56427;51.580;4.656;2023-04-03T11:41:08;103056.16;;;9.08;40.05
69306;BME280;56427;51.580;4.656;2023-04-03T11:43:41;103059.69;;;9.06;39.08
69306;BME280;56427;51.580;4.656;2023-04-03T11:46:08;103044.25;;;9.25;40.93
69306;BME280;56427;51.580;4.656;2023-04-03T11:51:42;103044.41;;;9.40;39.62
69306;BME280;56427;51.580;4.656;2023-04-03T11:53:49;103044.69;;;9.34;39.73
69306;BME280;56427;51.580;4.656;2023-04-03T11:59:23;103037.16;;;10.07;42.59
69306;BME280;56427;51.580;4.656;2023-04-03T12:01:53;103022.69;;;9.64;40.46
69306;BME280;56427;51.580;4.656;2023-04-03T12:04:22;103027.09;;;8.79;39.15
69306;BME280;56427;51.580;4.656;2023-04-03T12:11:59;103011.22;;;9.49;33.75
69306;BME280;56427;51.580;4.656;2023-04-03T12:14:28;103021.84;;;9.63;35.03
69306;BME280;56427;51.580;4.656;2023-04-03T12:16:54;103017.47;;;10.03;34.15
69306;BME280;56427;51.580;4.656;2023-04-03T12:19:39;103019.34;;;9.81;35.47
69306;BME280;56427;51.580;4.656;2023-04-03T12:22:11;103014.00;;;9.65;33.90
69306;BME280;56427;51.580;4.656;2023-04-03T12:24:39;103011.47;;;9.24;31.42
69306;BME280;56427;51.580;4.656;2023-04-03T12:29:43;103000.84;;;9.88;36.16
69306;BME280;56427;51.580;4.656;2023-04-03T12:38:01;103000.91;;;10.79;38.39
69306;BME280;56427;51.580;4.656;2023-04-03T12:48:27;102987.31;;;10.01;35.77
69306;BME280;56427;51.580;4.656;2023-04-03T12:50:54;102997.84;;;10.71;38.22
69306;BME280;56427;51.580;4.656;2023-04-03T12:53:35;102992.44;;;10.75;38.71
69306;BME280;56427;51.580;4.656;2023-04-03T12:56:24;102989.13;;;10.54;37.80
69306;BME280;56427;51.580;4.656;2023-04-03T12:58:51;102993.88;;;10.27;36.62
69306;BME280;56427;51.580;4.656;2023-04-03T13:01:21;102979.53;;;10.20;36.11
69306;BME280;56427;51.580;4.656;2023-04-03T13:03:51;102969.22;;;9.99;35.85
69306;BME280;56427;51.580;4.656;2023-04-03T13:06:28;102971.28;;;10.29;37.22
69306;BME280;56427;51.580;4.656;2023-04-03T13:08:58;102975.31;;;10.17;37.18
69306;BME280;56427;51.580;4.656;2023-04-03T13:11:26;102969.28;;;9.60;36.38
69306;BME280;56427;51.580;4.656;2023-04-03T13:14:04;102956.53;;;9.36;35.00
69306;BME280;56427;51.580;4.656;2023-04-03T13:16:31;102959.72;;;9.81;36.84
69306;BME280;56427;51.580;4.656;2023-04-03T13:18:57;102961.47;;;10.36;36.40
69306;BME280;56427;51.580;4.656;2023-04-03T13:21:28;102965.53;;;9.86;35.24
69306;BME280;56427;51.580;4.656;2023-04-03T13:23:59;102969.75;;;10.25;38.40
69306;BME280;56427;51.580;4.656;2023-04-03T13:26:31;102968.75;;;10.64;34.92
69306;BME280;56427;51.580;4.656;2023-04-03T13:29:04;102975.31;;;10.17;36.17
69306;BME280;56427;51.580;4.656;2023-04-03T13:31:33;102964.81;;;9.63;35.28
69306;BME280;56427;51.580;4.656;2023-04-03T13:34:17;102970.69;;;9.67;37.00
69306;BME280;56427;51.580;4.656;2023-04-03T13:36:56;102960.75;;;9.95;36.53
69306;BME280;56427;51.580;4.656;2023-04-03T13:39:33;102956.47;;;9.94;36.36
69306;BME280;56427;51.580;4.656;2023-04-03T13:42:02;102963.63;;;10.08;36.72
69306;BME280;56427;51.580;4.656;2023-04-03T13:44:40;102961.38;;;10.56;37.39
69306;BME280;56427;51.580;4.656;2023-04-03T13:47:17;102957.16;;;10.17;35.39
69306;BME280;56427;51.580;4.656;2023-04-03T13:53:00;102951.97;;;10.17;35.66
69306;BME280;56427;51.580;4.656;2023-04-03T13:55:32;102955.91;;;9.88;36.43
69306;BME280;56427;51.580;4.656;2023-04-03T14:03:32;102934.63;;;10.54;38.34
69306;BME280;56427;51.580;4.656;2023-04-03T14:06:00;102942.34;;;10.73;37.88
69306;BME280;56427;51.580;4.656;2023-04-03T14:08:26;102951.75;;;10.03;37.85
69306;BME280;56427;51.580;4.656;2023-04-03T14:10:52;102947.09;;;9.92;37.28
69306;BME280;56427;51.580;4.656;2023-04-03T14:13:19;102946.22;;;10.10;37.58
69306;BME280;56427;51.580;4.656;2023-04-03T14:15:46;102933.63;;;10.39;37.69
69306;BME280;56427;51.580;4.656;2023-04-03T14:18:16;102933.19;;;10.48;39.05
69306;BME280;56427;51.580;4.656;2023-04-03T14:20:42;102937.97;;;10.39;38.86
69306;BME280;56427;51.580;4.656;2023-04-03T14:23:08;102935.84;;;10.10;38.08
69306;BME280;56427;51.580;4.656;2023-04-03T14:25:34;102945.84;;;10.55;40.17